Time;durP1;ratioP1;P1;durP2;ratioP2;P2;SDS_P1;SDS_P2;PMS_P1;PMS_P2;Temp;Humidity;BMP_temperature;BMP_pressure;BME280_temperature;BME280_humidity;BME280_pressure;Samples;Min_cycle;Max_cycle;Signal;HPM_P1;HPM_P2
2022/11/12 00:00:52;;;;;;;12.13;5.18;;;;;;;6.66;63.34;102538.41;4954739;28;20065;-66
2022/11/12 00:03:20;;;;;;;14.00;5.40;;;;;;;6.65;63.08;102536.69;4954488;28;20051;-64
2022/11/12 00:05:48;;;;;;;10.25;5.15;;;;;;;6.62;63.09;102542.22;4954509;28;20051;-64
2022/11/12 00:08:15;;;;;;;14.27;5.50;;;;;;;6.59;62.93;102539.72;4954568;28;20055;-64
2022/11/12 00:10:42;;;;;;;10.48;4.68;;;;;;;6.56;63.04;102536.38;4954439;28;20047;-66
2022/11/12 00:13:09;;;;;;;11.52;5.10;;;;;;;6.58;62.94;102530.00;4954343;28;20416;-65
2022/11/12 00:15:35;;;;;;;9.85;5.18;;;;;;;6.54;63.22;102536.47;4954272;28;20047;-65
2022/11/12 00:18:02;;;;;;;13.30;5.53;;;;;;;6.43;63.31;102533.59;4953194;28;20058;-69
2022/11/12 00:20:28;;;;;;;11.75;5.55;;;;;;;6.51;63.02;102539.31;4954962;28;20054;-64
2022/11/12 00:22:55;;;;;;;13.82;5.07;;;;;;;6.44;63.10;102537.97;4953729;28;20047;-65
2022/11/12 00:25:21;;;;;;;12.50;4.80;;;;;;;6.49;63.05;102535.88;4954233;28;20058;-65
2022/11/12 00:27:48;;;;;;;10.65;4.88;;;;;;;6.44;63.28;102527.28;4953364;28;20043;-66
2022/11/12 00:30:15;;;;;;;15.80;5.13;;;;;;;6.43;63.14;102528.25;4953177;28;20062;-66
2022/11/12 00:32:41;;;;;;;12.07;4.78;;;;;;;6.40;62.84;102536.44;4953948;28;20756;-64
2022/11/12 00:35:08;;;;;;;11.50;4.68;;;;;;;6.42;62.89;102534.50;4953393;28;20054;-65
2022/11/12 00:37:39;;;;;;;9.68;4.70;;;;;;;6.28;62.84;102527.31;4945008;28;20047;-65
2022/11/12 00:40:06;;;;;;;11.55;5.20;;;;;;;6.22;63.39;102533.84;4967697;28;20047;-67
2022/11/12 00:42:33;;;;;;;8.68;4.40;;;;;;;6.30;63.20;102537.91;4953585;28;20054;-67
2022/11/12 00:45:00;;;;;;;13.40;5.18;;;;;;;6.29;62.95;102541.50;4953970;28;20488;-66
2022/11/12 00:47:26;;;;;;;13.98;4.53;;;;;;;6.36;62.60;102542.88;4954158;28;20050;-66
2022/11/12 00:49:52;;;;;;;9.35;4.45;;;;;;;6.31;63.01;102539.63;4957833;28;20062;-66
2022/11/12 00:52:19;;;;;;;12.30;4.78;;;;;;;6.35;62.77;102543.81;4952071;28;20047;-66
2022/11/12 00:54:46;;;;;;;7.97;4.10;;;;;;;6.38;62.29;102541.84;4954461;28;20408;-65
2022/11/12 00:57:12;;;;;;;11.10;4.40;;;;;;;6.33;62.47;102540.41;4972524;28;20053;-67
2022/11/12 00:59:38;;;;;;;12.10;5.07;;;;;;;6.30;62.66;102540.56;4972509;28;20050;-64
2022/11/12 01:02:05;;;;;;;12.75;4.95;;;;;;;6.26;62.85;102536.38;4972864;28;20415;-66
2022/11/12 01:04:32;;;;;;;7.90;3.78;;;;;;;6.29;62.55;102536.16;4972649;28;20051;-66
2022/11/12 01:06:59;;;;;;;13.23;4.55;;;;;;;6.22;62.86;102531.16;4970301;28;20047;-66
2022/11/12 01:09:25;;;;;;;11.38;4.32;;;;;;;6.17;62.91;102530.56;4972201;28;20105;-67
2022/11/12 01:11:52;;;;;;;8.75;4.88;;;;;;;6.27;62.57;102533.59;4972264;28;20049;-67
2022/11/12 01:14:18;;;;;;;11.93;4.80;;;;;;;6.13;62.88;102537.00;4970836;28;20050;-66
2022/11/12 01:16:44;;;;;;;12.95;4.93;;;;;;;6.18;62.86;102528.75;4972330;28;20042;-66
2022/11/12 01:19:12;;;;;;;9.82;4.68;;;;;;;6.24;62.63;102533.75;4971806;28;20054;-65
2022/11/12 01:21:41;;;;;;;9.07;4.90;;;;;;;6.13;62.92;102526.34;4971775;28;20498;-66
2022/11/12 01:24:09;;;;;;;10.45;5.03;;;;;;;6.16;62.85;102526.19;4972237;28;20051;-66
2022/11/12 01:26:36;;;;;;;11.85;5.10;;;;;;;6.08;63.02;102525.78;4970844;28;20042;-65
2022/11/12 01:29:03;;;;;;;11.38;5.00;;;;;;;6.07;63.10;102532.03;4972556;28;20054;-65
2022/11/12 01:31:35;;;;;;;11.88;5.10;;;;;;;5.96;63.46;102529.97;4963433;28;20047;-64
2022/11/12 01:34:04;;;;;;;11.02;4.63;;;;;;;5.76;63.97;102539.06;4972341;28;20050;-67
2022/11/12 01:36:38;;;;;;;11.07;4.47;;;;;;;5.92;63.52;102536.41;4972685;28;20038;-65
2022/11/12 01:39:07;;;;;;;11.45;4.75;;;;;;;5.88;63.62;102537.53;4971964;28;20046;-68
2022/11/12 01:41:37;;;;;;;8.85;3.97;;;;;;;5.88;63.63;102547.34;4972580;28;20501;-66
2022/11/12 01:44:07;;;;;;;7.85;4.25;;;;;;;5.87;63.48;102546.47;4971783;28;20042;-64
2022/11/12 01:46:42;;;;;;;9.05;4.38;;;;;;;5.82;63.27;102542.34;4971815;28;20109;-65
2022/11/12 01:49:14;;;;;;;15.52;4.63;;;;;;;5.89;63.15;102549.03;4971808;28;20058;-65
2022/11/12 01:51:45;;;;;;;10.25;4.40;;;;;;;5.90;63.37;102540.09;4971674;28;20494;-65
2022/11/12 01:54:17;;;;;;;15.52;5.13;;;;;;;5.71;63.82;102546.44;4971897;28;20061;-64
2022/11/12 01:56:43;;;;;;;13.85;5.13;;;;;;;5.81;63.73;102551.28;4971772;28;20487;-65
2022/11/12 01:59:18;;;;;;;13.77;5.10;;;;;;;5.72;63.83;102542.84;4971909;28;20047;-66
2022/11/12 02:01:45;;;;;;;10.85;3.92;;;;;;;5.85;63.69;102544.84;4969766;28;20058;-64
2022/11/12 02:04:11;;;;;;;11.93;4.97;;;;;;;5.65;64.14;102551.25;4971605;28;20051;-65
2022/11/12 02:07:21;;;;;;;7.47;4.47;;;;;;;5.53;64.37;102542.13;4971616;28;20054;-65
2022/11/12 02:09:47;;;;;;;12.50;4.40;;;;;;;5.63;64.21;102547.78;4970983;28;20043;-64
2022/11/12 02:13:56;;;;;;;11.65;4.63;;;;;;;5.55;64.50;102553.53;4971831;28;20051;-65
2022/11/12 02:15:02;;;;;;;11.05;4.28;;;;;;;5.48;64.71;102541.50;4971694;28;20042;-65
2022/11/12 02:17:29;;;;;;;9.43;4.60;;;;;;;5.53;64.67;102552.78;4971810;28;20047;-64
2022/11/12 02:19:58;;;;;;;8.38;4.07;;;;;;;5.37;64.89;102546.56;4971140;28;20054;-65
2022/11/12 02:22:24;;;;;;;9.82;4.10;;;;;;;5.63;63.97;102548.69;4970268;28;20047;-65
2022/11/12 02:24:51;;;;;;;8.57;3.63;;;;;;;5.71;64.05;102549.13;4971098;28;20058;-65
2022/11/12 02:27:17;;;;;;;12.93;4.10;;;;;;;5.86;63.14;102554.53;4971227;28;20055;-64
2022/11/12 02:29:46;;;;;;;7.78;3.97;;;;;;;5.81;63.17;102545.97;4969951;28;20043;-66
2022/11/12 02:32:13;;;;;;;9.05;4.00;;;;;;;5.75;63.14;102552.47;4970940;28;20057;-66
2022/11/12 02:34:40;;;;;;;11.40;4.03;;;;;;;5.82;62.61;102553.84;4966837;28;20403;-64
2022/11/12 02:37:06;;;;;;;9.18;3.35;;;;;;;5.76;62.73;102555.03;4971221;28;20043;-65
2022/11/12 02:39:33;;;;;;;9.65;3.53;;;;;;;5.76;62.53;102556.84;4971808;28;20050;-64
2022/11/12 02:41:59;;;;;;;9.25;4.00;;;;;;;5.79;62.53;102558.50;4971285;28;20043;-65
2022/11/12 02:44:26;;;;;;;8.55;3.20;;;;;;;5.76;62.36;102559.50;4971374;28;20055;-67
2022/11/12 02:46:52;;;;;;;12.85;3.70;;;;;;;5.68;62.57;102570.59;4970831;28;20042;-67
2022/11/12 02:49:19;;;;;;;12.75;4.18;;;;;;;5.76;62.33;102572.81;4971660;28;20422;-64
2022/11/12 02:51:45;;;;;;;6.95;3.45;;;;;;;5.67;62.49;102576.84;4970745;28;20046;-66
2022/11/12 02:54:11;;;;;;;7.60;3.63;;;;;;;5.76;62.17;102571.00;4971377;28;20057;-66
2022/11/12 02:56:38;;;;;;;6.95;3.60;;;;;;;5.81;61.94;102581.44;4954610;28;20059;-66
2022/11/12 02:59:04;;;;;;;9.38;5.25;;;;;;;5.67;62.40;102584.00;4950848;28;20054;-66
2022/11/12 03:01:31;;;;;;;10.70;4.28;;;;;;;5.79;62.14;102585.97;4951923;28;20047;-66
2022/11/12 03:03:58;;;;;;;11.05;3.67;;;;;;;5.69;62.11;102582.09;4953462;28;20403;-66
2022/11/12 03:06:24;;;;;;;6.72;3.15;;;;;;;5.77;61.85;102585.22;4955410;28;20047;-66
2022/11/12 03:08:51;;;;;;;6.80;3.20;;;;;;;5.82;61.42;102587.63;4955649;28;20051;-67
2022/11/12 03:11:17;;;;;;;10.75;3.95;;;;;;;5.84;61.57;102593.75;4954923;28;20468;-66
2022/11/12 03:13:44;;;;;;;10.90;3.78;;;;;;;5.82;61.31;102592.94;4954557;28;20122;-66
2022/11/12 03:16:10;;;;;;;13.07;3.60;;;;;;;5.85;61.42;102587.47;4954239;28;20064;-66
2022/11/12 03:18:37;;;;;;;7.32;4.07;;;;;;;5.83;61.08;102597.31;4954651;28;20054;-67
2022/11/12 03:21:04;;;;;;;9.60;3.10;;;;;;;5.82;61.15;102585.81;4955285;28;20047;-66
2022/11/12 03:23:30;;;;;;;8.90;3.72;;;;;;;5.81;60.96;102602.75;4954763;28;20051;-66
2022/11/12 03:25:57;;;;;;;9.80;3.65;;;;;;;5.78;61.04;102584.25;4954267;28;20051;-66
2022/11/12 03:28:24;;;;;;;10.90;3.03;;;;;;;5.69;61.67;102595.41;4954596;28;20047;-66
2022/11/12 03:30:56;;;;;;;8.20;3.40;;;;;;;5.74;61.42;102588.91;4954818;28;20047;-66
2022/11/12 03:33:22;;;;;;;;;;;;;;;5.66;61.59;102592.91;4955024;28;20058;-66
2022/11/12 03:35:49;;;;;;;8.13;3.85;;;;;;;5.70;61.48;102591.81;4954626;28;19922;-66
2022/11/12 03:38:15;;;;;;;6.82;2.90;;;;;;;5.68;61.44;102589.22;4954482;28;20065;-66
2022/11/12 03:40:42;;;;;;;6.97;3.20;;;;;;;5.65;61.77;102594.72;4955076;28;20051;-67
2022/11/12 03:43:08;;;;;;;5.63;3.35;;;;;;;5.67;61.56;102592.84;4951850;28;20047;-66
2022/11/12 03:45:35;;;;;;;6.53;2.90;;;;;;;5.73;61.40;102594.28;4955298;28;20050;-66
2022/11/12 03:48:01;;;;;;;8.45;3.30;;;;;;;5.70;61.34;102592.69;4954048;28;20043;-66
2022/11/12 03:50:29;;;;;;;8.93;3.58;;;;;;;5.70;61.47;102594.50;4953485;28;20404;-66
2022/11/12 03:52:57;;;;;;;11.52;4.28;;;;;;;5.71;61.33;102588.22;4954348;28;20063;-66
2022/11/12 03:55:26;;;;;;;9.63;3.85;;;;;;;5.70;61.34;102591.81;4959284;28;20518;-66
2022/11/12 03:57:54;;;;;;;6.55;3.53;;;;;;;5.71;61.34;102593.53;4973788;28;20050;-64
2022/11/12 04:00:21;;;;;;;9.30;3.75;;;;;;;5.69;61.09;102595.41;4973932;28;20504;-66
2022/11/12 04:02:48;;;;;;;9.13;3.55;;;;;;;5.69;61.15;102595.41;4973287;28;20043;-66
2022/11/12 04:10:50;;;;;;;21.38;4.22;;;;;;;5.49;62.09;102599.13;4972317;28;20051;-66
2022/11/12 04:13:28;;;;;;;13.30;4.65;;;;;;;5.34;62.48;102586.63;4973434;28;20086;-64
2022/11/12 04:21:50;;;;;;;7.55;4.47;;;;;;;5.46;62.35;102597.50;4973516;28;20055;-66
2022/11/12 04:27:06;;;;;;;11.68;4.43;;;;;;;5.45;62.35;102603.75;4972671;28;20047;-65
2022/11/12 04:32:17;;;;;;;9.57;4.35;;;;;;;5.41;62.50;102601.34;4972964;28;20423;-65
2022/11/12 04:34:44;;;;;;;11.90;4.38;;;;;;;5.03;63.63;102604.19;4968758;28;20522;-65
2022/11/12 04:37:10;;;;;;;8.57;4.68;;;;;;;5.23;63.15;102614.66;4972470;28;20059;-65
2022/11/12 04:39:37;;;;;;;7.82;4.32;;;;;;;5.27;63.00;102607.38;4972143;28;20047;-64
2022/11/12 04:45:22;;;;;;;11.82;4.18;;;;;;;5.31;62.70;102602.75;4973164;28;20050;-65
2022/11/12 04:47:45;;;;;;;8.07;4.30;;;;;;;5.33;62.50;102611.53;4971769;28;20047;-64
2022/11/12 04:50:16;;;;;;;13.48;4.65;;;;;;;5.24;62.62;102604.88;4969065;28;20135;-64
2022/11/12 04:52:43;;;;;;;;;;;;;;;5.25;62.43;102604.81;4973462;28;20054;-64
2022/11/12 04:55:10;;;;;;;8.13;3.80;;;;;;;5.26;62.63;102613.66;4968657;28;19926;-64
2022/11/12 04:57:37;;;;;;;9.40;3.70;;;;;;;5.24;62.42;102611.06;4953526;28;20051;-64
2022/11/12 05:00:04;;;;;;;12.88;4.13;;;;;;;5.20;62.54;102609.50;4953629;28;20054;-64
2022/11/12 05:02:31;;;;;;;10.77;4.45;;;;;;;5.18;62.49;102611.41;4952077;28;20437;-66
2022/11/12 05:04:57;;;;;;;11.52;4.18;;;;;;;5.20;62.47;102614.81;4951872;28;20047;-66
2022/11/12 05:07:23;;;;;;;8.90;3.92;;;;;;;5.16;62.63;102625.72;4953481;28;20048;-67
2022/11/12 05:09:50;;;;;;;13.38;4.18;;;;;;;5.04;63.30;102613.91;4953462;28;20055;-66
2022/11/12 05:12:16;;;;;;;7.43;4.25;;;;;;;5.12;63.38;102616.16;4952853;28;20055;-66
2022/11/12 05:14:43;;;;;;;13.85;5.03;;;;;;;5.23;63.07;102614.66;4952697;28;20047;-64
2022/11/12 05:17:09;;;;;;;7.43;3.80;;;;;;;5.24;62.88;102615.53;4953109;28;20047;-65
2022/11/12 05:19:36;;;;;;;8.32;4.10;;;;;;;5.12;62.87;102618.81;4952813;28;20126;-64
2022/11/12 05:22:05;;;;;;;10.63;4.47;;;;;;;5.07;62.85;102624.34;4951849;28;20051;-66
2022/11/12 05:24:40;;;;;;;11.45;4.03;;;;;;;5.09;62.92;102627.81;4951566;28;20110;-64
2022/11/12 05:27:19;;;;;;;9.48;4.20;;;;;;;5.12;62.64;102638.31;4950937;28;20051;-66
2022/11/12 05:29:46;;;;;;;9.07;4.35;;;;;;;5.15;62.66;102639.97;4951645;28;20106;-66
2022/11/12 05:32:14;;;;;;;7.97;4.10;;;;;;;5.15;62.45;102645.28;4952062;28;20055;-66
2022/11/12 05:34:41;;;;;;;8.48;3.97;;;;;;;5.14;62.24;102640.88;4952350;28;20051;-67
2022/11/12 05:37:09;;;;;;;8.88;4.18;;;;;;;5.04;62.65;102630.72;4953290;28;20515;-66
2022/11/12 05:39:36;;;;;;;9.95;4.18;;;;;;;5.10;62.51;102629.53;4951428;28;20069;-66
2022/11/12 05:42:03;;;;;;;10.13;4.22;;;;;;;5.05;62.44;102629.78;4951986;28;20047;-66
2022/11/12 05:44:39;;;;;;;9.57;4.53;;;;;;;5.07;62.69;102628.81;4951988;28;20047;-69
2022/11/12 05:47:06;;;;;;;13.38;4.70;;;;;;;5.07;62.76;102626.16;4951968;28;20043;-66
2022/11/12 05:49:33;;;;;;;8.98;4.28;;;;;;;5.02;62.83;102632.59;4952711;28;20047;-65
2022/11/12 05:51:59;;;;;;;7.90;4.22;;;;;;;5.05;62.86;102636.91;4951534;28;22564;-66
2022/11/12 05:54:25;;;;;;;11.27;5.15;;;;;;;5.03;62.86;102638.75;4952667;28;20061;-65
2022/11/12 05:56:52;;;;;;;10.18;4.55;;;;;;;4.92;63.17;102635.78;4970241;28;20059;-65
2022/11/12 05:59:19;;;;;;;13.48;4.90;;;;;;;5.03;62.85;102638.75;4971137;28;20070;-66
2022/11/12 06:01:45;;;;;;;10.02;4.05;;;;;;;4.94;63.08;102634.78;4971538;28;20054;-66
2022/11/12 06:04:13;;;;;;;11.80;4.88;;;;;;;4.98;62.86;102641.66;4967267;28;20059;-65
2022/11/12 06:06:41;;;;;;;8.02;4.47;;;;;;;5.00;63.13;102639.75;4971859;28;20047;-70
2022/11/12 06:09:08;;;;;;;7.78;4.18;;;;;;;5.02;63.16;102637.03;4970778;28;20053;-65
2022/11/12 06:11:36;;;;;;;8.60;4.93;;;;;;;5.00;63.01;102639.75;4971398;28;20042;-66
2022/11/12 06:14:03;;;;;;;14.77;5.07;;;;;;;4.96;63.20;102637.34;4970230;28;20042;-66
2022/11/12 06:16:30;;;;;;;11.95;5.00;;;;;;;4.93;63.26;102638.34;4970531;28;20053;-66
2022/11/12 06:18:57;;;;;;;18.83;8.90;;;;;;;4.97;63.30;102642.59;4971588;28;20467;-66
2022/11/12 06:21:26;;;;;;;19.95;8.77;;;;;;;4.92;63.33;102641.97;4971609;28;20047;-65
2022/11/12 06:23:58;;;;;;;10.68;5.38;;;;;;;4.90;63.26;102643.84;4971246;28;20047;-65
2022/11/12 06:26:27;;;;;;;13.80;4.75;;;;;;;4.94;63.26;102649.88;4970741;28;20058;-66
2022/11/12 06:28:54;;;;;;;12.95;5.80;;;;;;;4.79;63.89;102640.84;4971445;28;20051;-65
2022/11/12 06:31:21;;;;;;;14.88;6.20;;;;;;;4.73;64.38;102635.84;4971695;28;20058;-65
2022/11/12 06:33:49;;;;;;;20.63;5.55;;;;;;;4.75;64.39;102644.59;4971234;28;20051;-65
2022/11/12 06:36:17;;;;;;;9.68;6.13;;;;;;;4.66;64.86;102647.69;4971037;28;20046;-65
2022/11/12 06:38:44;;;;;;;14.30;5.40;;;;;;;4.84;64.22;102649.47;4973345;28;20441;-66
2022/11/12 06:41:12;;;;;;;14.50;5.65;;;;;;;4.70;64.54;102657.25;4974438;28;20066;-67
2022/11/12 06:43:39;;;;;;;11.73;5.25;;;;;;;4.70;64.80;102659.91;4975741;28;20047;-65
2022/11/12 06:46:11;;;;;;;12.15;4.95;;;;;;;4.88;64.27;102668.78;4975225;28;20047;-66
2022/11/12 06:48:38;;;;;;;10.90;5.13;;;;;;;4.91;64.01;102672.16;4973483;28;20051;-64
2022/11/12 06:51:06;;;;;;;8.65;4.65;;;;;;;4.91;64.00;102660.66;4973907;28;20042;-64
2022/11/12 06:53:33;;;;;;;9.65;4.82;;;;;;;4.90;64.18;102680.19;4974943;28;20058;-64
2022/11/12 06:56:04;;;;;;;11.15;4.65;;;;;;;4.93;64.11;102680.06;4963754;28;20051;-65
2022/11/12 06:58:31;;;;;;;12.27;4.78;;;;;;;4.92;64.07;102678.34;4954359;28;20117;-66
2022/11/12 07:01:10;;;;;;;13.75;5.18;;;;;;;4.95;64.17;102676.38;4954818;28;20055;-67
2022/11/12 07:03:39;;;;;;;14.40;5.35;;;;;;;5.00;63.70;102686.78;4955890;28;20467;-65
2022/11/12 07:06:08;;;;;;;12.32;5.38;;;;;;;5.01;63.67;102680.56;4953770;28;20043;-65
2022/11/12 07:08:35;;;;;;;12.90;4.82;;;;;;;5.07;63.29;102674.91;4955641;28;20047;-66
2022/11/12 07:11:02;;;;;;;9.65;5.40;;;;;;;5.05;63.50;102684.78;4955150;28;20051;-65
2022/11/12 07:13:31;;;;;;;10.38;5.57;;;;;;;4.90;64.22;102693.50;4954200;28;20519;-66
2022/11/12 07:15:59;;;;;;;9.98;4.50;;;;;;;4.99;64.30;102685.94;4955392;28;20043;-64
2022/11/12 07:18:26;;;;;;;10.68;4.82;;;;;;;5.13;63.74;102693.22;4954238;28;20047;-66
2022/11/12 07:21:03;;;;;;;14.90;5.60;;;;;;;5.19;63.59;102687.59;4953990;28;20456;-65
2022/11/12 07:23:31;;;;;;;9.30;5.18;;;;;;;5.21;63.29;102698.16;4954891;28;20058;-64
2022/11/12 07:26:03;;;;;;;11.38;5.20;;;;;;;5.27;63.36;102696.06;4954450;28;20496;-65
2022/11/12 07:28:29;;;;;;;;;;;;;;;5.10;63.89;102698.69;4955541;28;20051;-65
2022/11/12 07:30:58;;;;;;;41.58;20.98;;;;;;;5.28;63.27;102707.56;4955014;28;19929;-64
2022/11/12 07:33:25;;;;;;;37.83;18.10;;;;;;;5.29;62.83;102712.81;4954223;28;20115;-67
2022/11/12 07:36:03;;;;;;;27.10;14.52;;;;;;;5.29;63.18;102699.50;4954408;28;20047;-66
2022/11/12 07:38:31;;;;;;;18.88;10.85;;;;;;;5.34;63.32;102711.72;4952869;28;20054;-65
2022/11/12 07:41:04;;;;;;;27.52;11.48;;;;;;;5.39;63.17;102717.69;4954343;28;20055;-66
2022/11/12 07:43:35;;;;;;;25.80;12.00;;;;;;;5.39;63.28;102701.72;4954370;28;20059;-65
2022/11/12 07:46:05;;;;;;;17.35;9.10;;;;;;;5.48;63.37;102710.06;4954594;28;20053;-68
2022/11/12 07:48:37;;;;;;;15.40;7.80;;;;;;;5.59;62.84;102712.19;4954267;28;20495;-66
2022/11/12 07:51:12;;;;;;;13.98;7.20;;;;;;;5.41;64.06;102716.66;4952245;28;20051;-66
2022/11/12 07:53:40;;;;;;;15.27;6.47;;;;;;;5.67;63.18;102718.00;4954671;28;20047;-65
2022/11/12 07:56:06;;;;;;;14.68;6.55;;;;;;;5.74;62.68;102714.06;4965243;28;20042;-65
2022/11/12 07:58:33;;;;;;;17.40;6.40;;;;;;;5.51;63.24;102709.06;4973446;28;20081;-65
2022/11/12 08:01:22;;;;;;;22.50;5.90;;;;;;;5.82;62.70;102718.13;4972753;28;20051;-65
2022/11/12 08:03:48;;;;;;;15.30;5.38;;;;;;;5.77;62.95;102711.25;4974063;28;20469;-65
2022/11/12 08:06:15;;;;;;;12.00;5.40;;;;;;;5.72;63.39;102712.41;4973706;28;20057;-65
2022/11/12 08:08:41;;;;;;;9.73;5.32;;;;;;;6.02;62.32;102715.28;4972954;28;20054;-66
2022/11/12 08:11:08;;;;;;;16.17;5.07;;;;;;;5.92;62.11;102714.03;4973519;28;20447;-65
2022/11/12 08:13:34;;;;;;;14.15;5.35;;;;;;;5.81;62.29;102719.94;4972885;28;20061;-65
2022/11/12 08:16:01;;;;;;;11.98;4.90;;;;;;;6.17;61.45;102729.59;4972996;28;20050;-65
2022/11/12 08:18:28;;;;;;;13.43;5.18;;;;;;;6.26;61.07;102721.13;4973520;28;20051;-65
2022/11/12 08:21:02;;;;;;;9.93;4.93;;;;;;;6.37;60.79;102720.53;4971693;28;20051;-67
2022/11/12 08:23:29;;;;;;;12.43;6.03;;;;;;;6.35;60.93;102717.94;4972698;28;20137;-67
2022/11/12 08:26:06;;;;;;;14.00;5.32;;;;;;;6.35;60.91;102722.41;4973025;28;20054;-65
2022/11/12 08:28:34;;;;;;;15.63;6.07;;;;;;;6.38;60.69;102711.59;4972605;28;20047;-67
2022/11/12 08:31:06;;;;;;;14.23;5.93;;;;;;;6.35;61.16;102703.75;4972800;28;20042;-66
2022/11/12 08:33:33;;;;;;;14.20;6.10;;;;;;;6.74;60.08;102719.38;4973267;28;20419;-67
2022/11/12 08:36:08;;;;;;;14.50;5.63;;;;;;;6.91;59.55;102713.06;4973157;28;20043;-66
2022/11/12 08:38:35;;;;;;;14.65;5.85;;;;;;;6.77;59.76;102710.31;4972829;28;20062;-66
2022/11/12 08:41:03;;;;;;;12.98;6.28;;;;;;;7.01;59.63;102716.06;4972230;28;20054;-67
2022/11/12 08:43:29;;;;;;;9.80;5.30;;;;;;;7.29;58.92;102724.22;4972104;28;20047;-65
2022/11/12 08:45:58;;;;;;;10.15;5.97;;;;;;;7.35;58.77;102713.16;4972722;28;20451;-66
2022/11/12 08:48:25;;;;;;;13.38;5.00;;;;;;;7.48;58.46;102721.31;4972537;28;20050;-66
2022/11/12 08:50:52;;;;;;;14.80;6.10;;;;;;;7.54;58.15;102718.28;4972045;28;20467;-66
2022/11/12 08:53:21;;;;;;;13.55;5.28;;;;;;;7.69;57.94;102718.31;4967616;28;20055;-68
2022/11/12 08:55:47;;;;;;;19.92;5.93;;;;;;;7.59;57.88;102710.84;4963771;28;20653;-65
2022/11/12 08:58:13;;;;;;;18.25;6.70;;;;;;;7.47;58.63;102708.06;4952884;28;20062;-66
2022/11/12 09:00:42;;;;;;;16.00;5.75;;;;;;;7.95;57.45;102717.63;4952055;28;20047;-67
2022/11/12 09:03:14;;;;;;;15.15;6.43;;;;;;;7.79;57.83;102708.78;4952359;28;20047;-66
2022/11/12 09:05:41;;;;;;;12.93;5.35;;;;;;;8.01;57.45;102719.91;4952199;28;20134;-65
2022/11/12 09:08:11;;;;;;;19.50;6.43;;;;;;;8.14;57.22;102722.69;4952522;28;20047;-65
2022/11/12 09:10:38;;;;;;;12.48;6.53;;;;;;;8.25;56.65;102722.84;4952957;28;20058;-65
2022/11/12 09:13:05;;;;;;;16.90;7.07;;;;;;;8.29;56.62;102718.19;4952655;28;20058;-66
2022/11/12 09:15:31;;;;;;;14.82;6.88;;;;;;;8.42;56.71;102713.78;4952603;28;20072;-67
2022/11/12 09:18:06;;;;;;;14.85;7.55;;;;;;;8.61;56.15;102718.81;4951894;28;20114;-65
2022/11/12 09:20:33;;;;;;;22.92;8.23;;;;;;;8.75;55.88;102725.97;4952148;28;20047;-65
2022/11/12 09:23:06;;;;;;;23.55;7.78;;;;;;;9.00;55.56;102720.72;4953005;28;20073;-65
2022/11/12 09:25:34;;;;;;;19.27;8.45;;;;;;;9.65;54.54;102727.16;4953011;28;20051;-65
2022/11/12 09:28:11;;;;;;;19.80;9.15;;;;;;;10.34;52.98;102731.22;4952438;28;20051;-65
2022/11/12 09:30:42;;;;;;;27.95;10.00;;;;;;;10.91;51.33;102733.34;4952832;28;20047;-65
2022/11/12 09:33:08;;;;;;;17.65;9.77;;;;;;;11.40;50.18;102736.88;4952104;28;20051;-67
2022/11/12 09:35:35;;;;;;;20.50;10.60;;;;;;;11.47;50.07;102719.28;4953161;28;20047;-66
2022/11/12 09:38:01;;;;;;;19.50;10.98;;;;;;;12.13;49.11;102723.09;4952517;28;20110;-65
2022/11/12 09:40:44;;;;;;;27.90;12.52;;;;;;;12.49;48.30;102734.63;4952314;28;20047;-66
2022/11/12 09:43:32;;;;;;;20.98;11.15;;;;;;;12.84;47.40;102739.88;4951825;28;20058;-64
2022/11/12 09:46:05;;;;;;;21.92;11.95;;;;;;;13.05;46.70;102734.53;4952748;28;20054;-66
2022/11/12 09:49:20;;;;;;;24.17;12.10;;;;;;;14.01;45.23;102727.31;4951551;28;20054;-66
2022/11/12 09:52:22;;;;;;;41.20;13.15;;;;;;;14.29;45.31;102726.59;4949207;28;20051;-65
2022/11/12 09:55:00;;;;;;;26.00;12.70;;;;;;;14.64;44.12;102736.09;4952698;28;20054;-66
2022/11/12 09:57:26;;;;;;;25.33;12.02;;;;;;;14.94;43.86;102737.03;4971709;28;20050;-65
2022/11/12 09:59:53;;;;;;;22.83;13.32;;;;;;;15.21;43.40;102729.09;4971604;28;20047;-65
2022/11/12 10:02:28;;;;;;;21.95;13.50;;;;;;;15.21;43.28;102714.72;4971993;28;20487;-66
2022/11/12 10:05:11;;;;;;;28.48;13.55;;;;;;;15.13;43.64;102720.00;4966151;28;20117;-65
2022/11/12 10:08:18;;;;;;;24.48;14.23;;;;;;;15.28;43.42;102723.13;4979760;28;20047;-67
2022/11/12 10:10:51;;;;;;;24.15;14.80;;;;;;;14.58;44.90;102715.03;4932316;28;20444;-66
2022/11/12 10:13:30;;;;;;;30.17;15.80;;;;;;;14.28;45.50;102707.81;4973974;28;20042;-65
2022/11/12 10:19:17;;;;;;;29.00;17.30;;;;;;;13.64;47.02;102708.91;4975323;28;20050;-65
2022/11/12 10:21:55;;;;;;;29.20;16.23;;;;;;;13.08;48.40;102723.50;4975637;28;20514;-66
2022/11/12 10:24:23;;;;;;;27.35;15.93;;;;;;;13.25;48.04;102697.84;4974356;28;20419;-65
2022/11/12 10:26:51;;;;;;;29.63;16.55;;;;;;;13.45;47.98;102706.06;4967273;28;20050;-65
2022/11/12 10:29:35;;;;;;;35.13;17.60;;;;;;;13.05;49.32;102717.53;4975572;28;20049;-66
2022/11/12 10:32:02;;;;;;;34.05;17.95;;;;;;;13.18;48.96;102725.41;4974688;28;20121;-65
2022/11/12 10:34:30;;;;;;;37.55;19.00;;;;;;;13.28;48.88;102707.47;4974977;28;20049;-65
2022/11/12 10:37:10;;;;;;;32.17;18.45;;;;;;;13.30;49.27;102700.13;4975155;28;20051;-65
2022/11/12 10:39:41;;;;;;;32.80;17.65;;;;;;;13.22;49.43;102708.88;4975205;28;20418;-67
2022/11/12 10:42:15;;;;;;;37.65;18.60;;;;;;;13.07;49.81;102723.63;4975765;28;20054;-66
2022/11/12 10:44:43;;;;;;;30.75;17.63;;;;;;;13.32;49.22;102696.31;4975412;28;20411;-67
2022/11/12 10:47:24;;;;;;;30.58;18.42;;;;;;;13.19;49.59;102671.41;4974898;28;20134;-67
2022/11/12 10:50:09;;;;;;;33.78;18.13;;;;;;;13.71;48.49;102703.84;4974860;28;20046;-65
2022/11/12 10:52:36;;;;;;;34.63;17.52;;;;;;;14.00;47.61;102714.81;4973117;28;20047;-66
2022/11/12 10:55:24;;;;;;;31.45;17.00;;;;;;;13.99;47.41;102696.91;4971106;28;20057;-67
2022/11/12 10:58:12;;;;;;;30.95;17.45;;;;;;;14.40;46.63;102697.78;4954134;28;20054;-67
2022/11/12 11:01:06;;;;;;;29.13;16.35;;;;;;;14.18;47.36;102713.19;4954940;28;20055;-67
2022/11/12 11:03:35;;;;;;;26.83;15.82;;;;;;;14.71;45.87;102698.59;4952324;28;20047;-67
2022/11/12 11:06:06;;;;;;;27.63;14.73;;;;;;;14.83;45.52;102702.88;4954308;28;20043;-65
2022/11/12 11:08:45;;;;;;;28.50;14.70;;;;;;;14.55;46.15;102704.50;4953779;28;20408;-65
2022/11/12 11:11:30;;;;;;;28.95;15.32;;;;;;;14.45;46.36;102704.47;4955083;28;20066;-65
2022/11/12 11:14:38;;;;;;;21.50;12.32;;;;;;;14.37;46.55;102700.78;4954793;28;20361;-65
2022/11/12 11:17:14;;;;;;;24.38;11.73;;;;;;;14.08;47.43;102698.81;4955438;28;20044;-65
2022/11/12 11:19:41;;;;;;;28.10;12.18;;;;;;;13.95;47.94;102696.31;4953737;28;20043;-66
2022/11/12 11:22:46;;;;;;;29.20;12.57;;;;;;;14.01;47.82;102687.69;4955183;28;20073;-65
2022/11/12 11:25:34;;;;;;;25.73;12.35;;;;;;;14.19;47.59;102700.56;4954030;28;20401;-65
2022/11/12 11:28:21;;;;;;;25.50;12.25;;;;;;;14.13;47.26;102693.84;4953813;28;20043;-66
2022/11/12 11:31:29;;;;;;;26.50;12.23;;;;;;;14.06;47.75;102677.34;4953746;28;20053;-65
2022/11/12 11:34:20;;;;;;;25.30;13.05;;;;;;;14.03;47.71;102688.41;4953919;28;20058;-65
2022/11/12 11:37:01;;;;;;;24.58;12.40;;;;;;;14.08;47.79;102690.72;4953940;28;20047;-64
2022/11/12 11:39:44;;;;;;;22.77;11.98;;;;;;;14.17;47.49;102672.84;4954037;28;20415;-66
2022/11/12 11:42:22;;;;;;;22.75;11.70;;;;;;;14.18;47.34;102675.38;4953642;28;20058;-65
2022/11/12 11:44:54;;;;;;;29.02;11.82;;;;;;;14.40;47.21;102679.75;4954971;28;20047;-65
2022/11/12 11:47:41;;;;;;;20.80;10.73;;;;;;;14.56;46.64;102673.78;4951646;28;20488;-66
2022/11/12 11:50:29;;;;;;;23.25;11.20;;;;;;;14.53;46.61;102669.53;4954315;28;20074;-66
2022/11/12 11:53:21;;;;;;;22.67;10.32;;;;;;;14.71;46.71;102672.44;4954323;28;20393;-67
2022/11/12 11:56:01;;;;;;;20.05;10.43;;;;;;;15.42;44.67;102682.13;4963066;28;20043;-65
2022/11/12 11:58:42;;;;;;;26.65;10.20;;;;;;;15.12;45.97;102669.59;4970923;28;20042;-67
2022/11/12 12:01:33;;;;;;;18.50;8.82;;;;;;;16.40;42.88;102678.09;4973011;28;20046;-66
2022/11/12 12:04:06;;;;;;;21.83;9.95;;;;;;;16.95;41.43;102688.03;4972043;28;20046;-67